createdAt,value
2018-06-01T00:00:27.892Z,19.77
2018-06-01T00:05:30.410Z,19.86
2018-06-01T00:10:32.910Z,20.01
2018-06-01T00:15:35.414Z,19.85
2018-06-01T00:20:37.955Z,19.69
2018-06-01T00:25:41.045Z,19.58
2018-06-01T00:30:44.046Z,19.57
2018-06-01T00:35:46.555Z,19.55
2018-06-01T00:40:49.091Z,19.58
2018-06-01T00:45:51.613Z,19.61
2018-06-01T00:50:54.126Z,19.57
2018-06-01T00:55:56.632Z,19.90
2018-06-01T01:00:59.143Z,19.79
2018-06-01T01:06:01.656Z,19.53
2018-06-01T01:11:04.180Z,19.39
2018-06-01T01:16:06.673Z,19.30
2018-06-01T01:21:09.197Z,19.16
2018-06-01T01:26:11.709Z,18.98
2018-06-01T01:31:14.234Z,18.91
2018-06-01T01:36:16.721Z,18.80
2018-06-01T01:41:19.244Z,18.69
2018-06-01T01:46:21.781Z,18.62
2018-06-01T01:51:24.260Z,18.62
2018-06-01T01:56:26.744Z,18.70
2018-06-01T02:01:29.261Z,18.99
2018-06-01T02:06:31.875Z,19.36
2018-06-01T02:11:34.379Z,19.36
2018-06-01T02:16:37.514Z,19.35
2018-06-01T02:21:39.982Z,19.41
2018-06-01T02:26:43.922Z,19.45
2018-06-01T02:31:46.535Z,19.74
2018-06-01T02:36:49.056Z,19.86
2018-06-01T02:41:51.588Z,19.91
2018-06-01T02:46:54.067Z,19.95
2018-06-01T02:51:56.590Z,20.16
2018-06-01T02:56:59.125Z,20.06
2018-06-01T03:02:01.635Z,20.01
2018-06-01T03:07:11.253Z,19.91
2018-06-01T03:12:13.749Z,19.81
2018-06-01T03:17:16.253Z,19.66
2018-06-01T03:22:18.776Z,19.56
2018-06-01T03:27:21.339Z,19.54
2018-06-01T03:32:23.877Z,19.67
2018-06-01T03:37:26.406Z,19.81
2018-06-01T03:42:28.930Z,19.98
2018-06-01T03:47:31.477Z,20.37
2018-06-01T03:52:33.973Z,20.66
2018-06-01T03:57:36.485Z,20.95
2018-06-01T04:02:38.993Z,21.30
2018-06-01T04:07:41.495Z,21.52
2018-06-01T04:12:43.995Z,21.75
2018-06-01T04:17:47.588Z,22.04
2018-06-01T04:22:50.352Z,22.34
2018-06-01T04:27:52.911Z,24.86
2018-06-01T04:32:55.393Z,27.92
2018-06-01T04:37:57.878Z,28.78
2018-06-01T04:43:01.204Z,29.50
2018-06-01T04:48:03.692Z,30.19
2018-06-01T04:53:06.236Z,30.53
2018-06-01T04:58:08.725Z,31.07
2018-06-01T05:03:11.219Z,31.27
2018-06-01T05:08:13.732Z,32.21
2018-06-01T05:13:17.000Z,31.65
2018-06-01T05:18:19.525Z,32.12
2018-06-01T05:23:22.051Z,34.06
2018-06-01T05:28:24.621Z,34.38
2018-06-01T05:33:27.113Z,35.55
2018-06-01T05:38:29.608Z,34.28
2018-06-01T05:43:32.111Z,33.86
2018-06-01T05:48:34.606Z,35.04
2018-06-01T05:53:37.114Z,34.34
2018-06-01T05:58:39.614Z,33.77
2018-06-01T06:03:42.556Z,35.57
2018-06-01T06:08:45.057Z,35.57
2018-06-01T06:13:47.628Z,36.61
2018-06-01T06:18:50.172Z,35.95
2018-06-01T06:23:52.695Z,37.15
2018-06-01T06:28:55.171Z,36.25
2018-06-01T06:33:58.009Z,37.12
2018-06-01T06:39:00.568Z,38.22
2018-06-01T06:44:03.060Z,36.54
2018-06-01T06:49:05.583Z,36.70
2018-06-01T06:54:08.078Z,37.71
2018-06-01T06:59:10.558Z,35.52
2018-06-01T07:04:13.878Z,36.01
2018-06-01T07:09:16.735Z,36.37
2018-06-01T07:14:19.317Z,34.62
2018-06-01T07:19:21.864Z,34.39
2018-06-01T07:24:24.353Z,32.67
2018-06-01T07:29:26.840Z,33.73
2018-06-01T07:34:29.332Z,32.70
2018-06-01T07:39:31.861Z,31.11
2018-06-01T07:44:34.443Z,29.87
2018-06-01T07:49:36.960Z,29.27
2018-06-01T07:54:39.459Z,28.56
2018-06-01T07:59:41.935Z,28.88
2018-06-01T08:04:44.455Z,28.35
2018-06-01T08:09:47.037Z,27.71
2018-06-01T08:14:49.559Z,27.36
2018-06-01T08:19:52.056Z,26.62
2018-06-01T08:24:54.539Z,26.36
2018-06-01T08:29:57.019Z,26.25
2018-06-01T08:34:59.532Z,25.48
2018-06-01T08:40:02.031Z,25.02
2018-06-01T08:45:04.493Z,25.01
2018-06-01T08:50:06.995Z,25.09
2018-06-01T08:55:09.504Z,25.08
2018-06-01T09:00:11.986Z,24.70
2018-06-01T09:05:14.509Z,24.75
2018-06-01T09:10:17.151Z,24.83
2018-06-01T09:15:19.522Z,24.98
2018-06-01T09:20:22.037Z,25.36
2018-06-01T09:25:24.601Z,26.05
2018-06-01T09:30:27.089Z,27.05
2018-06-01T09:35:29.589Z,27.46
2018-06-01T09:40:32.101Z,27.85
2018-06-01T09:45:34.667Z,28.69
2018-06-01T09:50:37.165Z,28.76
2018-06-01T09:55:39.671Z,28.27
2018-06-01T10:00:42.198Z,28.03
2018-06-01T10:05:44.735Z,28.58
2018-06-01T10:10:47.325Z,29.34
2018-06-01T10:15:49.830Z,29.95
2018-06-01T10:20:52.350Z,30.71
2018-06-01T10:25:54.879Z,31.62
2018-06-01T10:30:57.366Z,32.34
2018-06-01T10:35:59.877Z,32.28
2018-06-01T10:41:02.375Z,32.46
2018-06-01T10:46:04.882Z,32.04
2018-06-01T10:51:07.649Z,32.72
2018-06-01T10:56:10.188Z,33.10
2018-06-01T11:01:12.991Z,33.43
2018-06-01T11:06:15.532Z,33.25
2018-06-01T11:11:18.046Z,33.56
2018-06-01T11:16:21.090Z,33.18
2018-06-01T11:21:25.220Z,32.16
2018-06-01T11:26:28.107Z,32.70
2018-06-01T11:31:30.942Z,32.59
2018-06-01T11:36:33.816Z,32.15
2018-06-01T11:41:36.288Z,32.34
2018-06-01T11:46:38.766Z,32.91
2018-06-01T11:51:41.273Z,31.61
2018-06-01T11:56:43.840Z,32.87
2018-06-01T12:01:46.651Z,33.23
2018-06-01T12:06:49.158Z,32.91
2018-06-01T12:11:51.688Z,32.68
2018-06-01T12:16:54.227Z,32.52
2018-06-01T12:21:56.712Z,33.12
2018-06-01T12:26:59.264Z,33.62
2018-06-01T12:32:01.769Z,33.43
2018-06-01T12:37:04.292Z,32.93
2018-06-01T12:42:06.795Z,32.90
2018-06-01T12:47:09.273Z,33.79
2018-06-01T12:52:11.768Z,34.32
2018-06-01T12:57:14.288Z,34.52
2018-06-01T13:02:16.828Z,34.40
2018-06-01T13:07:29.346Z,35.26
2018-06-01T13:12:35.153Z,35.59
2018-06-01T13:17:37.843Z,35.37
2018-06-01T13:22:40.332Z,35.22
2018-06-01T13:27:49.741Z,34.97
2018-06-01T13:32:52.411Z,34.39
2018-06-01T13:37:54.906Z,34.97
2018-06-01T13:42:57.410Z,33.77
2018-06-01T13:47:59.937Z,34.84
2018-06-01T13:53:02.413Z,34.28
2018-06-01T13:58:04.910Z,34.42
2018-06-01T14:03:07.453Z,35.30
2018-06-01T14:08:09.980Z,35.24
2018-06-01T14:13:12.523Z,35.96
2018-06-01T14:18:15.011Z,35.54
2018-06-01T14:23:17.563Z,35.38
2018-06-01T14:28:20.092Z,35.49
2018-06-01T14:33:22.630Z,34.88
2018-06-01T14:38:25.114Z,34.67
2018-06-01T14:43:27.623Z,35.01
2018-06-01T14:48:30.089Z,34.66
2018-06-01T14:53:32.571Z,34.29
2018-06-01T14:58:35.100Z,34.46
2018-06-01T15:03:37.616Z,34.49
2018-06-01T15:08:40.086Z,33.64
2018-06-01T15:13:42.605Z,32.88
2018-06-01T15:18:45.113Z,32.63
2018-06-01T15:23:47.792Z,33.12
2018-06-01T15:28:50.276Z,32.92
2018-06-01T15:33:52.881Z,33.21
2018-06-01T15:38:55.323Z,33.35
2018-06-01T15:43:58.279Z,33.37
2018-06-01T15:49:00.800Z,33.55
2018-06-01T15:54:03.250Z,33.75
2018-06-01T15:59:05.755Z,34.37
2018-06-01T16:04:08.336Z,34.62
2018-06-01T16:09:10.869Z,34.52
2018-06-01T16:14:14.511Z,34.59
2018-06-01T16:19:17.111Z,33.74
2018-06-01T16:24:19.643Z,33.56
2018-06-01T16:29:22.232Z,33.87
2018-06-01T16:34:24.725Z,33.15
2018-06-01T16:39:27.196Z,34.28
2018-06-01T16:44:29.700Z,34.62
2018-06-01T16:49:32.198Z,33.25
2018-06-01T16:54:34.749Z,33.66
2018-06-01T16:59:37.216Z,33.39
2018-06-01T17:04:39.716Z,34.19
2018-06-01T17:09:42.211Z,33.38
2018-06-01T17:14:44.940Z,32.20
2018-06-01T17:19:47.546Z,29.91
2018-06-01T17:24:50.037Z,27.21
2018-06-01T17:29:52.590Z,26.10
2018-06-01T17:34:55.453Z,25.20
2018-06-01T17:39:58.566Z,25.11
2018-06-01T17:45:01.089Z,24.69
2018-06-01T17:50:03.604Z,23.98
2018-06-01T17:55:06.319Z,22.80
2018-06-01T18:00:11.209Z,22.44
2018-06-01T18:05:16.263Z,22.33
2018-06-01T18:10:19.611Z,22.05
2018-06-01T18:15:22.526Z,21.59
2018-06-01T18:20:26.092Z,21.04
2018-06-01T18:25:29.733Z,20.51
2018-06-01T18:30:32.237Z,20.22
2018-06-01T18:35:34.739Z,20.12
2018-06-01T18:40:37.251Z,20.24
2018-06-01T18:45:39.715Z,20.16
2018-06-01T18:50:42.239Z,20.33
2018-06-01T18:55:44.856Z,20.53
2018-06-01T19:00:47.610Z,20.47
2018-06-01T19:05:50.487Z,20.36
2018-06-01T19:10:54.123Z,20.29
2018-06-01T19:15:57.513Z,20.66
2018-06-01T19:20:59.984Z,20.51
2018-06-01T19:26:04.254Z,20.73
2018-06-01T19:31:08.961Z,20.83
2018-06-01T19:36:12.103Z,21.01
2018-06-01T19:41:16.773Z,20.79
2018-06-01T19:46:21.386Z,20.46
2018-06-01T19:51:25.565Z,20.51
2018-06-01T19:56:31.232Z,20.40
2018-06-01T20:01:34.944Z,20.47
2018-06-01T20:06:37.888Z,20.34
2018-06-01T20:11:41.105Z,20.69
2018-06-01T20:16:46.358Z,20.60
2018-06-01T20:21:48.866Z,20.67
2018-06-01T20:27:03.266Z,20.77
2018-06-01T20:32:07.718Z,20.72
2018-06-01T20:37:10.388Z,20.52
2018-06-01T20:42:14.942Z,20.34
2018-06-01T20:47:18.330Z,20.23
2018-06-01T20:52:22.272Z,20.28
2018-06-01T20:57:25.945Z,20.47
2018-06-01T21:02:31.813Z,20.51
2018-06-01T21:07:36.926Z,20.46
2018-06-01T21:12:40.691Z,20.44
2018-06-01T21:17:43.405Z,20.47
2018-06-01T21:22:47.444Z,20.50
2018-06-01T21:27:50.061Z,20.50
2018-06-01T21:32:52.634Z,20.44
2018-06-01T21:37:55.204Z,20.37
2018-06-01T21:42:58.104Z,20.33
2018-06-01T21:48:00.717Z,20.28
2018-06-01T21:53:03.562Z,20.06
2018-06-01T21:58:06.201Z,19.91
2018-06-01T22:03:14.288Z,19.91
2018-06-01T22:08:21.055Z,19.87
2018-06-01T22:13:24.302Z,19.85
2018-06-01T22:18:27.145Z,19.82
2018-06-01T22:23:29.721Z,19.88
2018-06-01T22:28:32.265Z,19.84
2018-06-01T22:33:34.753Z,19.87
2018-06-01T22:38:37.243Z,19.68
2018-06-01T22:43:39.732Z,19.58
2018-06-01T22:48:42.255Z,19.53
2018-06-01T22:53:44.797Z,19.50
2018-06-01T22:58:47.349Z,19.35
2018-06-01T23:03:49.943Z,19.20
2018-06-01T23:08:52.525Z,19.16
2018-06-01T23:13:54.991Z,19.16
2018-06-01T23:18:57.503Z,19.11
2018-06-01T23:23:59.979Z,19.04
2018-06-01T23:29:02.494Z,18.97
2018-06-01T23:34:05.007Z,18.97
2018-06-01T23:39:07.534Z,18.90
2018-06-01T23:44:10.024Z,18.77
2018-06-01T23:49:12.644Z,18.71
2018-06-01T23:54:15.188Z,18.62
2018-06-01T23:59:17.770Z,18.56
